sensor_id;sensor_type;location;lat;lon;timestamp;P1;P2;P0
78678;PMS5003;67994;59.334;13.528;2023-07-30T00:00:00;10.3;10.3;
78678;PMS5003;67994;59.334;13.528;2023-07-30T00:01:00;10.3;10.3;
78678;PMS5003;67994;59.334;13.528;2023-07-30T00:02:00;14.6;12.9;
78678;PMS5003;67994;59.334;13.528;2023-07-30T00:03:00;14.6;12.9;
78678;PMS5003;67994;59.334;13.528;2023-07-30T00:04:00;14.6;12.9;
78678;PMS5003;67994;59.334;13.528;2023-07-30T00:05:00;14.6;12.9;
78678;PMS5003;67994;59.334;13.528;2023-07-30T00:06:00;14.6;12.9;
78678;PMS5003;67994;59.334;13.528;2023-07-30T00:07:00;6.1;6.1;
78678;PMS5003;67994;59.334;13.528;2023-07-30T00:08:00;6.1;6.1;
78678;PMS5003;67994;59.334;13.528;2023-07-30T00:09:00;6.1;6.1;
78678;PMS5003;67994;59.334;13.528;2023-07-30T00:10:00;6.1;6.1;
78678;PMS5003;67994;59.334;13.528;2023-07-30T00:11:00;6.1;6.1;
78678;PMS5003;67994;59.334;13.528;2023-07-30T00:12:00;9.9;9.2;
78678;PMS5003;67994;59.334;13.528;2023-07-30T00:13:00;9.9;9.2;
78678;PMS5003;67994;59.334;13.528;2023-07-30T00:14:00;9.9;9.2;
78678;PMS5003;67994;59.334;13.528;2023-07-30T00:15:00;9.9;9.2;
78678;PMS5003;67994;59.334;13.528;2023-07-30T00:16:00;9.9;9.2;
78678;PMS5003;67994;59.334;13.528;2023-07-30T00:17:00;10.3;9.3;
78678;PMS5003;67994;59.334;13.528;2023-07-30T00:18:00;10.3;9.3;
78678;PMS5003;67994;59.334;13.528;2023-07-30T00:19:00;10.3;9.3;
78678;PMS5003;67994;59.334;13.528;2023-07-30T00:20:00;10.3;9.3;
78678;PMS5003;67994;59.334;13.528;2023-07-30T00:21:00;10.3;9.3;
78678;PMS5003;67994;59.334;13.528;2023-07-30T00:22:00;14.2;14.1;
78678;PMS5003;67994;59.334;13.528;2023-07-30T00:23:00;14.2;14.1;
78678;PMS5003;67994;59.334;13.528;2023-07-30T00:24:00;14.2;14.1;
78678;PMS5003;67994;59.334;13.528;2023-07-30T00:25:00;14.2;14.1;
78678;PMS5003;67994;59.334;13.528;2023-07-30T00:26:00;14.2;14.1;
78678;PMS5003;67994;59.334;13.528;2023-07-30T00:27:00;10.5;10.3;
78678;PMS5003;67994;59.334;13.528;2023-07-30T00:28:00;10.5;10.3;
78678;PMS5003;67994;59.334;13.528;2023-07-30T00:29:00;10.5;10.3;
78678;PMS5003;67994;59.334;13.528;2023-07-30T00:30:00;10.5;10.3;
78678;PMS5003;67994;59.334;13.528;2023-07-30T00:31:00;10.5;10.3;
78678;PMS5003;67994;59.334;13.528;2023-07-30T00:32:00;11.4;11.4;
78678;PMS5003;67994;59.334;13.528;2023-07-30T00:33:00;11.4;11.4;
78678;PMS5003;67994;59.334;13.528;2023-07-30T00:34:00;11.4;11.4;
78678;PMS5003;67994;59.334;13.528;2023-07-30T00:35:00;11.4;11.4;
78678;PMS5003;67994;59.334;13.528;2023-07-30T00:36:00;11.4;11.4;
78678;PMS5003;67994;59.334;13.528;2023-07-30T00:37:00;11.2;11.2;
78678;PMS5003;67994;59.334;13.528;2023-07-30T00:38:00;11.2;11.2;
78678;PMS5003;67994;59.334;13.528;2023-07-30T00:39:00;11.2;11.2;
78678;PMS5003;67994;59.334;13.528;2023-07-30T00:40:00;11.2;11.2;
78678;PMS5003;67994;59.334;13.528;2023-07-30T00:41:00;11.2;11.2;
78678;PMS5003;67994;59.334;13.528;2023-07-30T00:42:00;16.4;15.7;
78678;PMS5003;67994;59.334;13.528;2023-07-30T00:43:00;16.4;15.7;
78678;PMS5003;67994;59.334;13.528;2023-07-30T00:44:00;16.4;15.7;
78678;PMS5003;67994;59.334;13.528;2023-07-30T00:45:00;16.4;15.7;
78678;PMS5003;67994;59.334;13.528;2023-07-30T00:46:00;16.4;15.7;
78678;PMS5003;67994;59.334;13.528;2023-07-30T00:47:00;14.9;13.0;
78678;PMS5003;67994;59.334;13.528;2023-07-30T00:48:00;14.9;13.0;
78678;PMS5003;67994;59.334;13.528;2023-07-30T00:49:00;14.9;13.0;
78678;PMS5003;67994;59.334;13.528;2023-07-30T00:50:00;14.9;13.0;
78678;PMS5003;67994;59.334;13.528;2023-07-30T00:51:00;14.9;13.0;
78678;PMS5003;67994;59.334;13.528;2023-07-30T00:52:00;13.5;12.1;
78678;PMS5003;67994;59.334;13.528;2023-07-30T00:53:00;13.5;12.1;
78678;PMS5003;67994;59.334;13.528;2023-07-30T00:54:00;13.5;12.1;
78678;PMS5003;67994;59.334;13.528;2023-07-30T00:55:00;13.5;12.1;
78678;PMS5003;67994;59.334;13.528;2023-07-30T00:56:00;13.5;12.1;
78678;PMS5003;67994;59.334;13.528;2023-07-30T00:57:00;13.6;13.0;
78678;PMS5003;67994;59.334;13.528;2023-07-30T00:58:00;13.6;13.0;
78678;PMS5003;67994;59.334;13.528;2023-07-30T00:59:00;13.6;13.0;
78678;PMS5003;67994;59.334;13.528;2023-07-30T01:00:00;13.6;13.0;
78678;PMS5003;67994;59.334;13.528;2023-07-30T01:01:00;13.6;13.0;
78678;PMS5003;67994;59.334;13.528;2023-07-30T01:02:00;13.0;12.7;
78678;PMS5003;67994;59.334;13.528;2023-07-30T01:03:00;13.0;12.7;
78678;PMS5003;67994;59.334;13.528;2023-07-30T01:04:00;13.0;12.7;
78678;PMS5003;67994;59.334;13.528;2023-07-30T01:05:00;13.0;12.7;
78678;PMS5003;67994;59.334;13.528;2023-07-30T01:06:00;13.0;12.7;
78678;PMS5003;67994;59.334;13.528;2023-07-30T01:07:00;11.0;10.3;
78678;PMS5003;67994;59.334;13.528;2023-07-30T01:08:00;11.0;10.3;
78678;PMS5003;67994;59.334;13.528;2023-07-30T01:09:00;11.0;10.3;
78678;PMS5003;67994;59.334;13.528;2023-07-30T01:10:00;11.0;10.3;
78678;PMS5003;67994;59.334;13.528;2023-07-30T01:11:00;11.0;10.3;
78678;PMS5003;67994;59.334;13.528;2023-07-30T01:12:00;10.3;10.3;
78678;PMS5003;67994;59.334;13.528;2023-07-30T01:13:01;10.3;10.3;
78678;PMS5003;67994;59.334;13.528;2023-07-30T01:14:00;10.3;10.3;
78678;PMS5003;67994;59.334;13.528;2023-07-30T01:15:00;10.3;10.3;
78678;PMS5003;67994;59.334;13.528;2023-07-30T01:16:00;10.3;10.3;
78678;PMS5003;67994;59.334;13.528;2023-07-30T01:17:00;10.0;10.0;
78678;PMS5003;67994;59.334;13.528;2023-07-30T01:18:00;10.0;10.0;
78678;PMS5003;67994;59.334;13.528;2023-07-30T01:19:00;10.0;10.0;
78678;PMS5003;67994;59.334;13.528;2023-07-30T01:20:00;10.0;10.0;
78678;PMS5003;67994;59.334;13.528;2023-07-30T01:21:00;10.0;10.0;
78678;PMS5003;67994;59.334;13.528;2023-07-30T01:22:00;13.7;12.4;
78678;PMS5003;67994;59.334;13.528;2023-07-30T01:23:00;13.7;12.4;
78678;PMS5003;67994;59.334;13.528;2023-07-30T01:24:00;13.7;12.4;
78678;PMS5003;67994;59.334;13.528;2023-07-30T01:25:00;13.7;12.4;
78678;PMS5003;67994;59.334;13.528;2023-07-30T01:26:02;13.7;12.4;
78678;PMS5003;67994;59.334;13.528;2023-07-30T01:27:01;12.4;12.1;
78678;PMS5003;67994;59.334;13.528;2023-07-30T01:28:00;12.4;12.1;
78678;PMS5003;67994;59.334;13.528;2023-07-30T01:29:00;12.4;12.1;
78678;PMS5003;67994;59.334;13.528;2023-07-30T01:30:01;12.4;12.1;
78678;PMS5003;67994;59.334;13.528;2023-07-30T01:31:00;12.4;12.1;
78678;PMS5003;67994;59.334;13.528;2023-07-30T01:32:02;12.3;9.6;
78678;PMS5003;67994;59.334;13.528;2023-07-30T01:33:00;12.3;9.6;
78678;PMS5003;67994;59.334;13.528;2023-07-30T01:34:00;12.3;9.6;
78678;PMS5003;67994;59.334;13.528;2023-07-30T01:35:00;12.3;9.6;
78678;PMS5003;67994;59.334;13.528;2023-07-30T01:36:00;12.3;9.6;
78678;PMS5003;67994;59.334;13.528;2023-07-30T01:37:00;9.0;9.0;
78678;PMS5003;67994;59.334;13.528;2023-07-30T01:38:00;9.0;9.0;
78678;PMS5003;67994;59.334;13.528;2023-07-30T01:39:00;9.0;9.0;
78678;PMS5003;67994;59.334;13.528;2023-07-30T01:40:00;9.0;9.0;
78678;PMS5003;67994;59.334;13.528;2023-07-30T01:41:00;9.0;9.0;
78678;PMS5003;67994;59.334;13.528;2023-07-30T01:42:00;13.3;12.0;
78678;PMS5003;67994;59.334;13.528;2023-07-30T01:43:00;13.3;12.0;
78678;PMS5003;67994;59.334;13.528;2023-07-30T01:44:00;13.3;12.0;
78678;PMS5003;67994;59.334;13.528;2023-07-30T01:45:00;13.3;12.0;
78678;PMS5003;67994;59.334;13.528;2023-07-30T01:46:00;13.3;12.0;
78678;PMS5003;67994;59.334;13.528;2023-07-30T01:47:00;10.7;10.7;
78678;PMS5003;67994;59.334;13.528;2023-07-30T01:48:00;10.7;10.7;
78678;PMS5003;67994;59.334;13.528;2023-07-30T01:49:00;10.7;10.7;
78678;PMS5003;67994;59.334;13.528;2023-07-30T01:50:00;10.7;10.7;
78678;PMS5003;67994;59.334;13.528;2023-07-30T01:51:00;10.7;10.7;
78678;PMS5003;67994;59.334;13.528;2023-07-30T01:52:00;14.2;13.0;
78678;PMS5003;67994;59.334;13.528;2023-07-30T01:53:00;14.2;13.0;
78678;PMS5003;67994;59.334;13.528;2023-07-30T01:54:00;14.2;13.0;
78678;PMS5003;67994;59.334;13.528;2023-07-30T01:55:00;14.2;13.0;
78678;PMS5003;67994;59.334;13.528;2023-07-30T01:56:00;14.2;13.0;
78678;PMS5003;67994;59.334;13.528;2023-07-30T01:57:00;12.7;12.3;
78678;PMS5003;67994;59.334;13.528;2023-07-30T01:58:00;12.7;12.3;
78678;PMS5003;67994;59.334;13.528;2023-07-30T01:59:00;12.7;12.3;
78678;PMS5003;67994;59.334;13.528;2023-07-30T02:00:00;12.7;12.3;
78678;PMS5003;67994;59.334;13.528;2023-07-30T02:01:00;12.7;12.3;
78678;PMS5003;67994;59.334;13.528;2023-07-30T02:02:00;11.7;11.7;
78678;PMS5003;67994;59.334;13.528;2023-07-30T02:03:00;11.7;11.7;
78678;PMS5003;67994;59.334;13.528;2023-07-30T02:04:00;11.7;11.7;
78678;PMS5003;67994;59.334;13.528;2023-07-30T02:05:00;11.7;11.7;
78678;PMS5003;67994;59.334;13.528;2023-07-30T02:06:00;11.7;11.7;
78678;PMS5003;67994;59.334;13.528;2023-07-30T02:07:00;12.4;10.2;
78678;PMS5003;67994;59.334;13.528;2023-07-30T02:08:00;12.4;10.2;
78678;PMS5003;67994;59.334;13.528;2023-07-30T02:09:00;12.4;10.2;
78678;PMS5003;67994;59.334;13.528;2023-07-30T02:10:00;12.4;10.2;
78678;PMS5003;67994;59.334;13.528;2023-07-30T02:11:00;12.4;10.2;
78678;PMS5003;67994;59.334;13.528;2023-07-30T02:12:00;13.1;11.8;
78678;PMS5003;67994;59.334;13.528;2023-07-30T02:13:00;13.1;11.8;
78678;PMS5003;67994;59.334;13.528;2023-07-30T02:14:00;13.1;11.8;
78678;PMS5003;67994;59.334;13.528;2023-07-30T02:15:00;13.1;11.8;
78678;PMS5003;67994;59.334;13.528;2023-07-30T02:16:00;13.1;11.8;
78678;PMS5003;67994;59.334;13.528;2023-07-30T02:17:00;12.7;12.7;
78678;PMS5003;67994;59.334;13.528;2023-07-30T02:18:00;12.7;12.7;
78678;PMS5003;67994;59.334;13.528;2023-07-30T02:19:00;12.7;12.7;
78678;PMS5003;67994;59.334;13.528;2023-07-30T02:20:00;12.7;12.7;
78678;PMS5003;67994;59.334;13.528;2023-07-30T02:21:00;12.7;12.7;
78678;PMS5003;67994;59.334;13.528;2023-07-30T02:22:00;13.4;11.8;
78678;PMS5003;67994;59.334;13.528;2023-07-30T02:23:00;13.4;11.8;
78678;PMS5003;67994;59.334;13.528;2023-07-30T02:24:00;13.4;11.8;
78678;PMS5003;67994;59.334;13.528;2023-07-30T02:25:00;13.4;11.8;
78678;PMS5003;67994;59.334;13.528;2023-07-30T02:26:00;13.4;11.8;
78678;PMS5003;67994;59.334;13.528;2023-07-30T02:27:00;12.4;12.4;
78678;PMS5003;67994;59.334;13.528;2023-07-30T02:28:00;12.4;12.4;
78678;PMS5003;67994;59.334;13.528;2023-07-30T02:29:00;12.4;12.4;
78678;PMS5003;67994;59.334;13.528;2023-07-30T02:30:00;12.4;12.4;
78678;PMS5003;67994;59.334;13.528;2023-07-30T02:31:00;12.4;12.4;
78678;PMS5003;67994;59.334;13.528;2023-07-30T02:32:00;11.3;11.3;
78678;PMS5003;67994;59.334;13.528;2023-07-30T02:33:00;11.3;11.3;
78678;PMS5003;67994;59.334;13.528;2023-07-30T02:34:00;11.3;11.3;
78678;PMS5003;67994;59.334;13.528;2023-07-30T02:35:00;11.3;11.3;
78678;PMS5003;67994;59.334;13.528;2023-07-30T02:36:00;11.3;11.3;
78678;PMS5003;67994;59.334;13.528;2023-07-30T02:37:00;11.1;11.1;
78678;PMS5003;67994;59.334;13.528;2023-07-30T02:38:00;11.1;11.1;
78678;PMS5003;67994;59.334;13.528;2023-07-30T02:39:00;11.1;11.1;
78678;PMS5003;67994;59.334;13.528;2023-07-30T02:40:00;11.1;11.1;
78678;PMS5003;67994;59.334;13.528;2023-07-30T02:41:00;11.1;11.1;
78678;PMS5003;67994;59.334;13.528;2023-07-30T02:42:00;10.0;9.0;
78678;PMS5003;67994;59.334;13.528;2023-07-30T02:43:00;10.0;9.0;
78678;PMS5003;67994;59.334;13.528;2023-07-30T02:44:00;10.0;9.0;
78678;PMS5003;67994;59.334;13.528;2023-07-30T02:45:00;10.0;9.0;
78678;PMS5003;67994;59.334;13.528;2023-07-30T02:46:00;10.0;9.0;
78678;PMS5003;67994;59.334;13.528;2023-07-30T02:47:00;13.4;13.0;
78678;PMS5003;67994;59.334;13.528;2023-07-30T02:48:00;13.4;13.0;
78678;PMS5003;67994;59.334;13.528;2023-07-30T02:49:00;13.4;13.0;
78678;PMS5003;67994;59.334;13.528;2023-07-30T02:50:01;13.4;13.0;
78678;PMS5003;67994;59.334;13.528;2023-07-30T02:51:00;13.4;13.0;
78678;PMS5003;67994;59.334;13.528;2023-07-30T02:52:00;8.8;8.8;
78678;PMS5003;67994;59.334;13.528;2023-07-30T02:53:00;8.8;8.8;
78678;PMS5003;67994;59.334;13.528;2023-07-30T02:54:03;8.8;8.8;
78678;PMS5003;67994;59.334;13.528;2023-07-30T02:55:00;8.8;8.8;
78678;PMS5003;67994;59.334;13.528;2023-07-30T02:56:00;8.8;8.8;
78678;PMS5003;67994;59.334;13.528;2023-07-30T02:57:00;12.8;11.3;
78678;PMS5003;67994;59.334;13.528;2023-07-30T02:58:00;12.8;11.3;
78678;PMS5003;67994;59.334;13.528;2023-07-30T02:59:00;12.8;11.3;
78678;PMS5003;67994;59.334;13.528;2023-07-30T03:00:00;12.8;11.3;
78678;PMS5003;67994;59.334;13.528;2023-07-30T03:01:04;12.8;11.3;
78678;PMS5003;67994;59.334;13.528;2023-07-30T03:02:00;9.5;8.9;
78678;PMS5003;67994;59.334;13.528;2023-07-30T03:03:00;9.5;8.9;
78678;PMS5003;67994;59.334;13.528;2023-07-30T03:04:00;9.5;8.9;
78678;PMS5003;67994;59.334;13.528;2023-07-30T03:05:00;9.5;8.9;
78678;PMS5003;67994;59.334;13.528;2023-07-30T03:06:00;9.5;8.9;
78678;PMS5003;67994;59.334;13.528;2023-07-30T03:07:00;10.0;10.0;
78678;PMS5003;67994;59.334;13.528;2023-07-30T03:08:00;10.0;10.0;
78678;PMS5003;67994;59.334;13.528;2023-07-30T03:09:00;10.0;10.0;
78678;PMS5003;67994;59.334;13.528;2023-07-30T03:10:00;10.0;10.0;
78678;PMS5003;67994;59.334;13.528;2023-07-30T03:11:00;10.0;10.0;
78678;PMS5003;67994;59.334;13.528;2023-07-30T03:12:00;10.6;9.1;
78678;PMS5003;67994;59.334;13.528;2023-07-30T03:13:00;10.6;9.1;
78678;PMS5003;67994;59.334;13.528;2023-07-30T03:14:00;10.6;9.1;
78678;PMS5003;67994;59.334;13.528;2023-07-30T03:15:00;10.6;9.1;
78678;PMS5003;67994;59.334;13.528;2023-07-30T03:16:00;10.6;9.1;
78678;PMS5003;67994;59.334;13.528;2023-07-30T03:17:00;13.9;12.6;
78678;PMS5003;67994;59.334;13.528;2023-07-30T03:18:00;13.9;12.6;
78678;PMS5003;67994;59.334;13.528;2023-07-30T03:19:00;13.9;12.6;
78678;PMS5003;67994;59.334;13.528;2023-07-30T03:20:01;13.9;12.6;
78678;PMS5003;67994;59.334;13.528;2023-07-30T03:21:00;13.9;12.6;
78678;PMS5003;67994;59.334;13.528;2023-07-30T03:22:00;11.5;11.5;
78678;PMS5003;67994;59.334;13.528;2023-07-30T03:23:00;11.5;11.5;
78678;PMS5003;67994;59.334;13.528;2023-07-30T03:24:00;11.5;11.5;
78678;PMS5003;67994;59.334;13.528;2023-07-30T03:25:00;11.5;11.5;
78678;PMS5003;67994;59.334;13.528;2023-07-30T03:26:00;11.5;11.5;
78678;PMS5003;67994;59.334;13.528;2023-07-30T03:27:00;13.0;11.6;
78678;PMS5003;67994;59.334;13.528;2023-07-30T03:28:00;13.0;11.6;
78678;PMS5003;67994;59.334;13.528;2023-07-30T03:29:00;13.0;11.6;
78678;PMS5003;67994;59.334;13.528;2023-07-30T03:30:00;13.0;11.6;
78678;PMS5003;67994;59.334;13.528;2023-07-30T03:31:00;13.0;11.6;
78678;PMS5003;67994;59.334;13.528;2023-07-30T03:32:00;13.3;13.3;
78678;PMS5003;67994;59.334;13.528;2023-07-30T03:33:00;13.3;13.3;
78678;PMS5003;67994;59.334;13.528;2023-07-30T03:34:00;13.3;13.3;
78678;PMS5003;67994;59.334;13.528;2023-07-30T03:35:00;13.3;13.3;
78678;PMS5003;67994;59.334;13.528;2023-07-30T03:36:00;13.3;13.3;
78678;PMS5003;67994;59.334;13.528;2023-07-30T03:37:00;12.4;12.4;
78678;PMS5003;67994;59.334;13.528;2023-07-30T03:38:00;12.4;12.4;
78678;PMS5003;67994;59.334;13.528;2023-07-30T03:39:00;12.4;12.4;
78678;PMS5003;67994;59.334;13.528;2023-07-30T03:40:00;12.4;12.4;
78678;PMS5003;67994;59.334;13.528;2023-07-30T03:41:00;12.4;12.4;
78678;PMS5003;67994;59.334;13.528;2023-07-30T03:42:00;13.8;12.2;
78678;PMS5003;67994;59.334;13.528;2023-07-30T03:43:00;13.8;12.2;
78678;PMS5003;67994;59.334;13.528;2023-07-30T03:44:00;13.8;12.2;
78678;PMS5003;67994;59.334;13.528;2023-07-30T03:45:00;13.8;12.2;
78678;PMS5003;67994;59.334;13.528;2023-07-30T03:46:00;13.8;12.2;
78678;PMS5003;67994;59.334;13.528;2023-07-30T03:47:00;14.0;13.0;
78678;PMS5003;67994;59.334;13.528;2023-07-30T03:48:00;14.0;13.0;
78678;PMS5003;67994;59.334;13.528;2023-07-30T03:49:00;14.0;13.0;
78678;PMS5003;67994;59.334;13.528;2023-07-30T03:50:00;14.0;13.0;
78678;PMS5003;67994;59.334;13.528;2023-07-30T03:51:00;14.0;13.0;
78678;PMS5003;67994;59.334;13.528;2023-07-30T03:52:00;12.2;10.0;
78678;PMS5003;67994;59.334;13.528;2023-07-30T03:53:00;12.2;10.0;
78678;PMS5003;67994;59.334;13.528;2023-07-30T03:54:00;12.2;10.0;
78678;PMS5003;67994;59.334;13.528;2023-07-30T03:55:00;12.2;10.0;
78678;PMS5003;67994;59.334;13.528;2023-07-30T03:56:00;12.2;10.0;
78678;PMS5003;67994;59.334;13.528;2023-07-30T03:57:00;12.4;12.4;
78678;PMS5003;67994;59.334;13.528;2023-07-30T03:58:00;12.4;12.4;
78678;PMS5003;67994;59.334;13.528;2023-07-30T03:59:00;12.4;12.4;
78678;PMS5003;67994;59.334;13.528;2023-07-30T04:00:00;12.4;12.4;
78678;PMS5003;67994;59.334;13.528;2023-07-30T04:01:00;12.4;12.4;
78678;PMS5003;67994;59.334;13.528;2023-07-30T04:02:00;12.4;11.8;
78678;PMS5003;67994;59.334;13.528;2023-07-30T04:03:00;12.4;11.8;
78678;PMS5003;67994;59.334;13.528;2023-07-30T04:04:00;12.4;11.8;
78678;PMS5003;67994;59.334;13.528;2023-07-30T04:05:00;12.4;11.8;
78678;PMS5003;67994;59.334;13.528;2023-07-30T04:06:00;12.4;11.8;
78678;PMS5003;67994;59.334;13.528;2023-07-30T04:07:00;12.8;12.1;
78678;PMS5003;67994;59.334;13.528;2023-07-30T04:08:00;12.8;12.1;
78678;PMS5003;67994;59.334;13.528;2023-07-30T04:09:00;12.8;12.1;
78678;PMS5003;67994;59.334;13.528;2023-07-30T04:10:00;12.8;12.1;
78678;PMS5003;67994;59.334;13.528;2023-07-30T04:11:00;12.8;12.1;
78678;PMS5003;67994;59.334;13.528;2023-07-30T04:12:00;13.1;13.1;
78678;PMS5003;67994;59.334;13.528;2023-07-30T04:13:00;13.1;13.1;
78678;PMS5003;67994;59.334;13.528;2023-07-30T04:14:00;13.1;13.1;
78678;PMS5003;67994;59.334;13.528;2023-07-30T04:15:00;13.1;13.1;
78678;PMS5003;67994;59.334;13.528;2023-07-30T04:16:00;13.1;13.1;
78678;PMS5003;67994;59.334;13.528;2023-07-30T04:17:00;13.0;12.3;
78678;PMS5003;67994;59.334;13.528;2023-07-30T04:18:00;13.0;12.3;
78678;PMS5003;67994;59.334;13.528;2023-07-30T04:19:00;13.0;12.3;
78678;PMS5003;67994;59.334;13.528;2023-07-30T04:20:00;13.0;12.3;
78678;PMS5003;67994;59.334;13.528;2023-07-30T04:21:00;13.0;12.3;
78678;PMS5003;67994;59.334;13.528;2023-07-30T04:22:00;14.2;12.3;
78678;PMS5003;67994;59.334;13.528;2023-07-30T04:23:00;14.2;12.3;
78678;PMS5003;67994;59.334;13.528;2023-07-30T04:24:00;14.2;12.3;
78678;PMS5003;67994;59.334;13.528;2023-07-30T04:25:00;14.2;12.3;
78678;PMS5003;67994;59.334;13.528;2023-07-30T04:26:00;14.2;12.3;
78678;PMS5003;67994;59.334;13.528;2023-07-30T04:27:00;17.1;14.2;
78678;PMS5003;67994;59.334;13.528;2023-07-30T04:28:00;17.1;14.2;
78678;PMS5003;67994;59.334;13.528;2023-07-30T04:29:00;17.1;14.2;
78678;PMS5003;67994;59.334;13.528;2023-07-30T04:30:00;17.1;14.2;
78678;PMS5003;67994;59.334;13.528;2023-07-30T04:31:00;17.1;14.2;
78678;PMS5003;67994;59.334;13.528;2023-07-30T04:32:00;15.8;13.9;
78678;PMS5003;67994;59.334;13.528;2023-07-30T04:33:00;15.8;13.9;
78678;PMS5003;67994;59.334;13.528;2023-07-30T04:34:00;15.8;13.9;
78678;PMS5003;67994;59.334;13.528;2023-07-30T04:35:00;15.8;13.9;
78678;PMS5003;67994;59.334;13.528;2023-07-30T04:36:00;15.8;13.9;
78678;PMS5003;67994;59.334;13.528;2023-07-30T04:37:00;12.7;12.7;
78678;PMS5003;67994;59.334;13.528;2023-07-30T04:38:00;12.7;12.7;
78678;PMS5003;67994;59.334;13.528;2023-07-30T04:39:00;12.7;12.7;
78678;PMS5003;67994;59.334;13.528;2023-07-30T04:40:00;12.7;12.7;
78678;PMS5003;67994;59.334;13.528;2023-07-30T04:41:00;12.7;12.7;
78678;PMS5003;67994;59.334;13.528;2023-07-30T04:42:00;12.8;11.5;
78678;PMS5003;67994;59.334;13.528;2023-07-30T04:43:00;12.8;11.5;
78678;PMS5003;67994;59.334;13.528;2023-07-30T04:44:00;12.8;11.5;
78678;PMS5003;67994;59.334;13.528;2023-07-30T04:45:00;12.8;11.5;
78678;PMS5003;67994;59.334;13.528;2023-07-30T04:46:00;12.8;11.5;
78678;PMS5003;67994;59.334;13.528;2023-07-30T04:47:00;15.7;15.7;
78678;PMS5003;67994;59.334;13.528;2023-07-30T04:48:00;15.7;15.7;
78678;PMS5003;67994;59.334;13.528;2023-07-30T04:49:01;15.7;15.7;
78678;PMS5003;67994;59.334;13.528;2023-07-30T04:50:00;15.7;15.7;
78678;PMS5003;67994;59.334;13.528;2023-07-30T04:51:00;15.7;15.7;
78678;PMS5003;67994;59.334;13.528;2023-07-30T04:52:00;12.3;12.3;
78678;PMS5003;67994;59.334;13.528;2023-07-30T04:53:00;12.3;12.3;
78678;PMS5003;67994;59.334;13.528;2023-07-30T04:54:00;12.3;12.3;
78678;PMS5003;67994;59.334;13.528;2023-07-30T04:55:00;12.3;12.3;
78678;PMS5003;67994;59.334;13.528;2023-07-30T04:56:00;12.3;12.3;
78678;PMS5003;67994;59.334;13.528;2023-07-30T04:57:00;10.0;9.0;
78678;PMS5003;67994;59.334;13.528;2023-07-30T04:58:00;10.0;9.0;
78678;PMS5003;67994;59.334;13.528;2023-07-30T04:59:00;10.0;9.0;
78678;PMS5003;67994;59.334;13.528;2023-07-30T05:00:00;10.0;9.0;
78678;PMS5003;67994;59.334;13.528;2023-07-30T05:01:00;10.0;9.0;
78678;PMS5003;67994;59.334;13.528;2023-07-30T05:02:00;13.1;13.1;
78678;PMS5003;67994;59.334;13.528;2023-07-30T05:03:00;13.1;13.1;
78678;PMS5003;67994;59.334;13.528;2023-07-30T05:04:00;13.1;13.1;
78678;PMS5003;67994;59.334;13.528;2023-07-30T05:05:00;13.1;13.1;
78678;PMS5003;67994;59.334;13.528;2023-07-30T05:06:00;13.1;13.1;
78678;PMS5003;67994;59.334;13.528;2023-07-30T05:07:00;12.4;12.4;
78678;PMS5003;67994;59.334;13.528;2023-07-30T05:08:00;12.4;12.4;
78678;PMS5003;67994;59.334;13.528;2023-07-30T05:09:00;12.4;12.4;
78678;PMS5003;67994;59.334;13.528;2023-07-30T05:10:00;12.4;12.4;
78678;PMS5003;67994;59.334;13.528;2023-07-30T05:11:00;12.4;12.4;
78678;PMS5003;67994;59.334;13.528;2023-07-30T05:12:00;16.5;16.5;
78678;PMS5003;67994;59.334;13.528;2023-07-30T05:13:00;16.5;16.5;
78678;PMS5003;67994;59.334;13.528;2023-07-30T05:14:00;16.5;16.5;
78678;PMS5003;67994;59.334;13.528;2023-07-30T05:15:00;16.5;16.5;
78678;PMS5003;67994;59.334;13.528;2023-07-30T05:16:00;16.5;16.5;
78678;PMS5003;67994;59.334;13.528;2023-07-30T05:17:00;15.5;12.9;
78678;PMS5003;67994;59.334;13.528;2023-07-30T05:18:00;15.5;12.9;
78678;PMS5003;67994;59.334;13.528;2023-07-30T05:19:00;15.5;12.9;
78678;PMS5003;67994;59.334;13.528;2023-07-30T05:20:00;15.5;12.9;
78678;PMS5003;67994;59.334;13.528;2023-07-30T05:21:00;15.5;12.9;
78678;PMS5003;67994;59.334;13.528;2023-07-30T05:22:00;14.1;14.1;
78678;PMS5003;67994;59.334;13.528;2023-07-30T05:23:00;14.1;14.1;
78678;PMS5003;67994;59.334;13.528;2023-07-30T05:24:00;14.1;14.1;
78678;PMS5003;67994;59.334;13.528;2023-07-30T05:25:00;14.1;14.1;
78678;PMS5003;67994;59.334;13.528;2023-07-30T05:26:00;14.1;14.1;
78678;PMS5003;67994;59.334;13.528;2023-07-30T05:27:00;12.0;9.9;
78678;PMS5003;67994;59.334;13.528;2023-07-30T05:28:00;12.0;9.9;
78678;PMS5003;67994;59.334;13.528;2023-07-30T05:29:00;12.0;9.9;
78678;PMS5003;67994;59.334;13.528;2023-07-30T05:30:00;12.0;9.9;
78678;PMS5003;67994;59.334;13.528;2023-07-30T05:31:00;12.0;9.9;
78678;PMS5003;67994;59.334;13.528;2023-07-30T05:32:00;9.7;8.0;
78678;PMS5003;67994;59.334;13.528;2023-07-30T05:33:00;9.7;8.0;
78678;PMS5003;67994;59.334;13.528;2023-07-30T05:34:00;9.7;8.0;
78678;PMS5003;67994;59.334;13.528;2023-07-30T05:35:00;9.7;8.0;
78678;PMS5003;67994;59.334;13.528;2023-07-30T05:36:00;9.7;8.0;
78678;PMS5003;67994;59.334;13.528;2023-07-30T05:37:00;10.0;8.2;
78678;PMS5003;67994;59.334;13.528;2023-07-30T05:38:00;10.0;8.2;
78678;PMS5003;67994;59.334;13.528;2023-07-30T05:39:00;10.0;8.2;
78678;PMS5003;67994;59.334;13.528;2023-07-30T05:40:00;10.0;8.2;
78678;PMS5003;67994;59.334;13.528;2023-07-30T05:41:00;10.0;8.2;
78678;PMS5003;67994;59.334;13.528;2023-07-30T05:42:00;11.6;9.0;
78678;PMS5003;67994;59.334;13.528;2023-07-30T05:43:00;11.6;9.0;
78678;PMS5003;67994;59.334;13.528;2023-07-30T05:44:00;11.6;9.0;
78678;PMS5003;67994;59.334;13.528;2023-07-30T05:45:00;11.6;9.0;
78678;PMS5003;67994;59.334;13.528;2023-07-30T05:46:00;11.6;9.0;
78678;PMS5003;67994;59.334;13.528;2023-07-30T05:47:00;13.6;11.7;
78678;PMS5003;67994;59.334;13.528;2023-07-30T05:48:00;13.6;11.7;
78678;PMS5003;67994;59.334;13.528;2023-07-30T05:49:00;13.6;11.7;
78678;PMS5003;67994;59.334;13.528;2023-07-30T05:50:01;13.6;11.7;
78678;PMS5003;67994;59.334;13.528;2023-07-30T05:51:00;13.6;11.7;
78678;PMS5003;67994;59.334;13.528;2023-07-30T05:52:00;9.0;8.9;
78678;PMS5003;67994;59.334;13.528;2023-07-30T05:53:00;9.0;8.9;
78678;PMS5003;67994;59.334;13.528;2023-07-30T05:54:00;9.0;8.9;
78678;PMS5003;67994;59.334;13.528;2023-07-30T05:55:00;9.0;8.9;
78678;PMS5003;67994;59.334;13.528;2023-07-30T05:56:00;9.0;8.9;
78678;PMS5003;67994;59.334;13.528;2023-07-30T05:57:00;11.4;10.7;
78678;PMS5003;67994;59.334;13.528;2023-07-30T05:58:00;11.4;10.7;
78678;PMS5003;67994;59.334;13.528;2023-07-30T05:59:00;11.4;10.7;
78678;PMS5003;67994;59.334;13.528;2023-07-30T06:00:00;11.4;10.7;
78678;PMS5003;67994;59.334;13.528;2023-07-30T06:01:00;11.4;10.7;
78678;PMS5003;67994;59.334;13.528;2023-07-30T06:02:01;11.7;10.4;
78678;PMS5003;67994;59.334;13.528;2023-07-30T06:03:00;11.7;10.4;
78678;PMS5003;67994;59.334;13.528;2023-07-30T06:04:00;11.7;10.4;
78678;PMS5003;67994;59.334;13.528;2023-07-30T06:05:00;11.7;10.4;
78678;PMS5003;67994;59.334;13.528;2023-07-30T06:06:01;11.7;10.4;
78678;PMS5003;67994;59.334;13.528;2023-07-30T06:07:02;11.9;9.9;
78678;PMS5003;67994;59.334;13.528;2023-07-30T06:08:00;11.9;9.9;
78678;PMS5003;67994;59.334;13.528;2023-07-30T06:09:00;11.9;9.9;